createdAt,value
2019-02-11T00:00:41.784Z,0
2019-02-11T00:01:51.207Z,0
2019-02-11T00:03:00.384Z,0
2019-02-11T00:04:09.816Z,0
2019-02-11T00:05:19.494Z,0
2019-02-11T00:06:28.174Z,0
2019-02-11T00:07:37.853Z,0
2019-02-11T00:08:47.535Z,0
2019-02-11T00:09:57.212Z,0
2019-02-11T00:11:06.880Z,0
2019-02-11T00:12:16.560Z,0
2019-02-11T00:13:26.247Z,0
2019-02-11T00:14:35.916Z,0
2019-02-11T00:15:45.841Z,0
2019-02-11T00:16:55.265Z,0
2019-02-11T00:18:04.678Z,0
2019-02-11T00:19:15.849Z,0
2019-02-11T00:20:25.289Z,0
2019-02-11T00:21:34.733Z,0
2019-02-11T00:22:44.663Z,0
2019-02-11T00:23:54.337Z,0
2019-02-11T00:25:03.758Z,0
2019-02-11T00:26:13.180Z,0
2019-02-11T00:27:22.352Z,0
2019-02-11T00:28:31.772Z,0
2019-02-11T00:29:41.445Z,0
2019-02-11T00:30:50.873Z,0
2019-02-11T00:32:00.550Z,0
2019-02-11T00:33:09.782Z,0
2019-02-11T00:34:19.215Z,0
2019-02-11T00:35:29.234Z,0
2019-02-11T00:36:38.917Z,0
2019-02-11T00:37:50.094Z,0
2019-02-11T00:39:00.026Z,0
2019-02-11T00:40:09.695Z,0
2019-02-11T00:41:19.627Z,0
2019-02-11T00:42:29.305Z,0
2019-02-11T00:43:38.734Z,0
2019-02-11T00:44:48.662Z,0
2019-02-11T00:45:58.087Z,0
2019-02-11T00:47:07.775Z,0
2019-02-11T00:48:17.206Z,0
2019-02-11T00:49:26.894Z,0
2019-02-11T00:50:36.324Z,0
2019-02-11T00:51:46.011Z,0
2019-02-11T00:52:55.697Z,0
2019-02-11T00:54:05.135Z,0
2019-02-11T00:55:14.600Z,0
2019-02-11T00:56:24.530Z,0
2019-02-11T00:57:34.198Z,0
2019-02-11T00:58:43.875Z,0
2019-02-11T00:59:53.303Z,0
2019-02-11T01:01:02.719Z,0
2019-02-11T01:02:12.216Z,0
2019-02-11T01:03:21.672Z,0
2019-02-11T01:04:31.373Z,0
2019-02-11T01:05:41.053Z,0
2019-02-11T01:06:50.729Z,0
2019-02-11T01:08:00.652Z,0
2019-02-11T01:09:10.325Z,0
2019-02-11T01:10:20.247Z,0
2019-02-11T01:11:29.924Z,0
2019-02-11T01:12:39.855Z,0
2019-02-11T01:13:49.527Z,0
2019-02-11T01:14:59.219Z,0
2019-02-11T01:16:09.152Z,0
2019-02-11T01:17:18.834Z,0
2019-02-11T01:18:28.752Z,0
2019-02-11T01:19:38.423Z,0
2019-02-11T01:20:48.097Z,0
2019-02-11T01:21:57.773Z,0
2019-02-11T01:23:07.458Z,0
2019-02-11T01:24:17.392Z,0
2019-02-11T01:25:26.811Z,0
2019-02-11T01:26:36.228Z,0
2019-02-11T01:27:45.893Z,0
2019-02-11T01:28:55.075Z,0
2019-02-11T01:30:04.543Z,0
2019-02-11T01:31:14.220Z,0
2019-02-11T01:32:23.903Z,0
2019-02-11T01:33:33.624Z,0
2019-02-11T01:34:43.304Z,0
2019-02-11T01:35:52.751Z,0
2019-02-11T01:37:01.671Z,0
2019-02-11T01:38:11.353Z,0
2019-02-11T01:39:21.024Z,0
2019-02-11T01:40:30.694Z,0
2019-02-11T01:41:39.878Z,0
2019-02-11T01:42:49.812Z,0
2019-02-11T01:43:59.484Z,0
2019-02-11T01:45:09.175Z,0
2019-02-11T01:46:18.618Z,0
2019-02-11T01:47:27.540Z,0
2019-02-11T01:48:37.229Z,0
2019-02-11T01:49:46.656Z,0
2019-02-11T01:50:56.579Z,0
2019-02-11T01:52:06.001Z,0
2019-02-11T01:53:15.428Z,0
2019-02-11T01:54:25.356Z,0
2019-02-11T01:55:35.044Z,0
2019-02-11T01:56:45.480Z,0
2019-02-11T01:57:55.406Z,0
2019-02-11T01:59:05.070Z,0
2019-02-11T02:00:14.763Z,0
2019-02-11T02:01:24.689Z,0
2019-02-11T02:02:34.360Z,0
2019-02-11T02:03:43.783Z,0
2019-02-11T02:04:53.203Z,0
2019-02-11T02:06:02.874Z,0
2019-02-11T02:07:12.548Z,0
2019-02-11T02:08:21.975Z,0
2019-02-11T02:09:31.646Z,0
2019-02-11T02:10:41.320Z,0
2019-02-11T02:11:50.739Z,0
2019-02-11T02:13:00.424Z,0
2019-02-11T02:14:09.880Z,0
2019-02-11T02:15:19.820Z,0
2019-02-11T02:16:29.752Z,0
2019-02-11T02:17:38.928Z,0
2019-02-11T02:18:48.849Z,0
2019-02-11T02:19:58.283Z,0
2019-02-11T02:21:07.951Z,0
2019-02-11T02:22:17.900Z,0
2019-02-11T02:23:27.812Z,0
2019-02-11T02:24:37.494Z,0
2019-02-11T02:25:46.917Z,0
2019-02-11T02:26:56.591Z,0
2019-02-11T02:28:06.025Z,0
2019-02-11T02:29:15.700Z,0
2019-02-11T02:30:25.644Z,0
2019-02-11T02:31:35.319Z,0
2019-02-11T02:32:45.244Z,0
2019-02-11T02:33:54.929Z,0
2019-02-11T02:35:04.792Z,0
2019-02-11T02:36:14.468Z,0
2019-02-11T02:37:24.412Z,0
2019-02-11T02:38:33.832Z,0
2019-02-11T02:39:43.751Z,0
2019-02-11T02:40:53.425Z,0
2019-02-11T02:42:03.104Z,0
2019-02-11T02:43:12.791Z,0
2019-02-11T02:45:51.822Z,0
2019-02-11T02:47:01.501Z,0
2019-02-11T02:48:11.202Z,0
2019-02-11T02:49:21.130Z,0
2019-02-11T02:50:30.567Z,0
2019-02-11T02:51:40.248Z,0
2019-02-11T02:52:49.982Z,0
2019-02-11T02:53:59.674Z,0
2019-02-11T02:55:09.372Z,0
2019-02-11T02:56:19.321Z,0
2019-02-11T02:57:29.255Z,0
2019-02-11T02:58:38.948Z,0
2019-02-11T02:59:48.878Z,0
2019-02-11T03:00:58.321Z,0
2019-02-11T03:02:08.014Z,0
2019-02-11T03:03:17.703Z,0
2019-02-11T03:04:27.387Z,0
2019-02-11T03:05:37.135Z,0
2019-02-11T03:06:46.339Z,0
2019-02-11T03:07:56.026Z,0
2019-02-11T03:09:05.959Z,0
2019-02-11T03:10:15.901Z,0
2019-02-11T03:11:25.649Z,0
2019-02-11T03:12:35.335Z,0
2019-02-11T03:13:44.781Z,0
2019-02-11T03:14:54.467Z,0
2019-02-11T03:16:04.154Z,0
2019-02-11T03:17:13.850Z,0
2019-02-11T03:18:23.286Z,0
2019-02-11T03:19:32.472Z,0
2019-02-11T03:20:42.411Z,0
2019-02-11T03:21:52.097Z,0
2019-02-11T03:23:02.037Z,0
2019-02-11T03:24:11.721Z,0
2019-02-11T03:25:21.193Z,0
2019-02-11T03:26:30.882Z,0
2019-02-11T03:27:40.569Z,0
2019-02-11T03:28:50.527Z,0
2019-02-11T03:30:00.473Z,0
2019-02-11T03:31:10.309Z,0
2019-02-11T03:32:20.467Z,0
2019-02-11T03:33:30.488Z,0
2019-02-11T03:34:40.194Z,0
2019-02-11T03:35:49.626Z,0
2019-02-11T03:36:59.564Z,0
2019-02-11T03:38:09.246Z,0
2019-02-11T03:39:19.188Z,0
2019-02-11T03:40:28.874Z,0
2019-02-11T03:41:38.305Z,0
2019-02-11T03:42:47.979Z,0
2019-02-11T03:44:00.004Z,0
2019-02-11T03:45:09.936Z,0
2019-02-11T03:46:19.359Z,0
2019-02-11T03:47:28.791Z,0
2019-02-11T03:48:38.738Z,0
2019-02-11T03:49:48.430Z,0
2019-02-11T03:50:58.139Z,0
2019-02-11T03:52:07.318Z,0
2019-02-11T03:53:16.744Z,0
2019-02-11T03:54:26.680Z,0
2019-02-11T03:55:36.621Z,0
2019-02-11T03:56:46.322Z,0
2019-02-11T03:57:56.011Z,0
2019-02-11T03:59:05.439Z,0
2019-02-11T04:00:15.381Z,0
2019-02-11T04:01:25.062Z,0
2019-02-11T04:02:34.743Z,0
2019-02-11T04:03:44.425Z,0
2019-02-11T04:04:54.115Z,0
2019-02-11T04:06:03.796Z,0
2019-02-11T04:07:13.472Z,0
2019-02-11T04:08:23.162Z,0
2019-02-11T04:09:33.117Z,0
2019-02-11T04:10:42.809Z,0
2019-02-11T04:11:52.496Z,0
2019-02-11T04:13:02.187Z,0
2019-02-11T04:14:11.874Z,0
2019-02-11T04:15:21.331Z,0
2019-02-11T04:16:31.011Z,0
2019-02-11T04:17:40.456Z,0
2019-02-11T04:18:50.150Z,0
2019-02-11T04:19:59.857Z,0
2019-02-11T04:21:09.550Z,0
2019-02-11T04:22:19.234Z,0
2019-02-11T04:23:29.193Z,0
2019-02-11T04:24:39.150Z,0
2019-02-11T04:25:48.587Z,0
2019-02-11T04:26:57.762Z,0
2019-02-11T04:28:07.721Z,0
2019-02-11T04:29:17.661Z,0
2019-02-11T04:30:27.591Z,0
2019-02-11T04:31:37.276Z,0
2019-02-11T04:32:46.968Z,0
2019-02-11T04:33:58.282Z,0
2019-02-11T04:35:08.056Z,0
2019-02-11T04:36:17.494Z,0
2019-02-11T04:37:27.189Z,0
2019-02-11T04:38:36.894Z,0
2019-02-11T04:39:46.570Z,0
2019-02-11T04:40:56.261Z,0
2019-02-11T04:42:05.449Z,0
2019-02-11T04:43:15.462Z,0
2019-02-11T04:44:33.547Z,0
2019-02-11T04:45:43.711Z,0
2019-02-11T04:46:53.667Z,0
2019-02-11T04:48:03.599Z,0
2019-02-11T04:49:13.275Z,0
2019-02-11T04:50:22.708Z,0
2019-02-11T04:51:32.136Z,0
2019-02-11T04:52:41.562Z,0
2019-02-11T04:53:51.289Z,0
2019-02-11T04:55:01.230Z,0
2019-02-11T04:56:10.916Z,0
2019-02-11T04:57:20.854Z,0
2019-02-11T04:58:30.275Z,0
2019-02-11T04:59:39.949Z,0
2019-02-11T05:00:49.880Z,0
2019-02-11T05:01:59.573Z,0
2019-02-11T05:03:09.264Z,0
2019-02-11T05:04:18.438Z,0
2019-02-11T05:05:28.389Z,0
2019-02-11T05:06:38.075Z,0
2019-02-11T05:07:47.758Z,0
2019-02-11T05:08:57.441Z,0
2019-02-11T05:10:06.373Z,0
2019-02-11T05:11:15.840Z,0
2019-02-11T05:12:25.780Z,0
2019-02-11T05:13:35.508Z,0
2019-02-11T05:14:53.555Z,0
2019-02-11T05:16:03.230Z,0
2019-02-11T05:17:12.660Z,0
2019-02-11T05:18:24.225Z,0
2019-02-11T05:19:34.161Z,0
2019-02-11T05:20:43.835Z,0
2019-02-11T05:21:53.520Z,0
2019-02-11T05:23:03.474Z,0
2019-02-11T05:24:12.950Z,0
2019-02-11T05:25:22.903Z,0
2019-02-11T05:26:32.902Z,0
2019-02-11T05:27:42.603Z,0
2019-02-11T05:28:52.304Z,0
2019-02-11T05:30:01.796Z,0
2019-02-11T05:31:11.515Z,0
2019-02-11T05:32:21.462Z,0
2019-02-11T05:33:31.427Z,0
2019-02-11T05:34:41.364Z,0
2019-02-11T05:35:51.290Z,0
2019-02-11T05:37:00.986Z,0
2019-02-11T05:38:10.699Z,0
2019-02-11T05:39:20.633Z,0
2019-02-11T05:40:30.071Z,0
2019-02-11T05:41:40.035Z,0
2019-02-11T05:42:49.972Z,0
2019-02-11T05:43:59.894Z,0
2019-02-11T05:45:09.876Z,0
2019-02-11T05:46:19.552Z,0
2019-02-11T05:47:29.243Z,0
2019-02-11T05:48:39.173Z,0
2019-02-11T05:49:49.106Z,0
2019-02-11T05:50:58.296Z,0
2019-02-11T05:52:08.261Z,0
2019-02-11T05:53:18.244Z,0
2019-02-11T05:54:27.919Z,0
2019-02-11T05:55:37.601Z,0
2019-02-11T05:56:47.040Z,0
2019-02-11T05:57:56.735Z,0
2019-02-11T05:59:06.681Z,0
2019-02-11T06:00:16.616Z,0
2019-02-11T06:01:26.059Z,0
2019-02-11T06:02:35.982Z,0
2019-02-11T06:03:45.424Z,0
2019-02-11T06:04:55.131Z,0
2019-02-11T06:06:04.821Z,0
2019-02-11T06:07:14.770Z,0
2019-02-11T06:08:24.470Z,0
2019-02-11T06:09:34.164Z,0
2019-02-11T06:10:43.340Z,0
2019-02-11T06:11:53.261Z,0
2019-02-11T06:13:02.946Z,0
2019-02-11T06:14:12.872Z,0
2019-02-11T06:15:22.826Z,0
2019-02-11T06:16:32.758Z,0
2019-02-11T06:17:42.451Z,0
2019-02-11T06:18:51.391Z,0
2019-02-11T06:20:01.070Z,0
2019-02-11T06:21:10.534Z,0
2019-02-11T06:22:19.965Z,0
2019-02-11T06:23:32.070Z,0
2019-02-11T06:24:42.008Z,0
2019-02-11T06:25:51.730Z,0
2019-02-11T06:27:01.417Z,0
2019-02-11T06:28:10.877Z,0
2019-02-11T06:29:21.509Z,0
2019-02-11T06:30:30.981Z,0
2019-02-11T06:31:40.666Z,0
2019-02-11T06:32:50.345Z,0
2019-02-11T06:34:00.272Z,0
2019-02-11T06:35:10.194Z,0
2019-02-11T06:36:22.060Z,0
2019-02-11T06:37:31.747Z,0
2019-02-11T06:38:41.447Z,0
2019-02-11T06:39:51.380Z,0
2019-02-11T06:41:01.079Z,0
2019-02-11T06:42:10.758Z,0
2019-02-11T06:43:20.693Z,0
2019-02-11T06:44:30.614Z,0
2019-02-11T06:45:40.293Z,0
2019-02-11T06:46:49.749Z,0
2019-02-11T06:47:59.419Z,0
2019-02-11T06:49:08.854Z,0
2019-02-11T06:50:18.799Z,5
2019-02-11T06:51:28.496Z,5
2019-02-11T06:52:38.424Z,5
2019-02-11T06:53:48.367Z,5
2019-02-11T06:54:57.800Z,10
2019-02-11T06:56:07.482Z,10
2019-02-11T06:57:17.198Z,10
2019-02-11T06:58:27.137Z,10
2019-02-11T06:59:36.559Z,10
2019-02-11T07:00:46.243Z,10
2019-02-11T07:01:55.669Z,10
2019-02-11T07:03:05.595Z,10
2019-02-11T07:04:15.523Z,15
2019-02-11T07:05:24.952Z,20
2019-02-11T07:06:34.127Z,20
2019-02-11T07:07:44.047Z,25
2019-02-11T07:08:54.022Z,25
2019-02-11T07:10:03.707Z,30
2019-02-11T07:11:13.395Z,30
2019-02-11T07:12:22.822Z,35
2019-02-11T07:13:32.759Z,35
2019-02-11T07:14:42.194Z,35
2019-02-11T07:15:51.871Z,40
2019-02-11T07:17:01.803Z,40
2019-02-11T07:18:11.241Z,40
2019-02-11T07:19:20.664Z,40
2019-02-11T07:20:29.850Z,40
2019-02-11T07:21:39.275Z,40
2019-02-11T07:22:49.230Z,45
2019-02-11T07:23:58.908Z,50
2019-02-11T07:25:08.879Z,50
2019-02-11T07:26:18.454Z,50
2019-02-11T07:27:28.142Z,55
2019-02-11T07:28:37.563Z,55
2019-02-11T07:29:46.755Z,60
2019-02-11T07:30:56.428Z,65
2019-02-11T07:32:06.359Z,65
2019-02-11T07:33:15.793Z,65
2019-02-11T07:34:25.240Z,65
2019-02-11T07:35:34.937Z,70
2019-02-11T07:36:44.377Z,70
2019-02-11T07:37:54.065Z,70
2019-02-11T07:39:03.990Z,70
2019-02-11T07:40:13.927Z,75
2019-02-11T07:41:23.876Z,85
2019-02-11T07:42:33.552Z,75
2019-02-11T07:43:42.984Z,80
2019-02-11T07:44:52.913Z,85
2019-02-11T07:46:02.848Z,85
2019-02-11T07:47:12.527Z,100
2019-02-11T07:48:22.445Z,150
2019-02-11T07:49:32.371Z,115
2019-02-11T07:50:41.541Z,100
2019-02-11T07:51:51.858Z,90
2019-02-11T07:53:01.289Z,85
2019-02-11T07:54:12.212Z,95
2019-02-11T07:55:21.951Z,100
2019-02-11T07:56:31.634Z,90
2019-02-11T07:57:41.562Z,95
2019-02-11T07:58:51.244Z,105
2019-02-11T08:00:01.924Z,110
2019-02-11T08:01:11.856Z,110
2019-02-11T08:02:21.542Z,115
2019-02-11T08:03:31.233Z,120
2019-02-11T08:04:41.169Z,115
2019-02-11T08:05:50.348Z,110
2019-02-11T08:06:59.770Z,105
2019-02-11T08:08:09.466Z,100
2019-02-11T08:09:18.955Z,100
2019-02-11T08:10:28.877Z,105
2019-02-11T08:11:38.552Z,105
2019-02-11T08:12:47.736Z,105
2019-02-11T08:13:57.662Z,110
2019-02-11T08:15:07.617Z,120
2019-02-11T08:16:17.552Z,140
2019-02-11T08:17:27.479Z,155
2019-02-11T08:18:36.917Z,130
2019-02-11T08:19:46.341Z,125
2019-02-11T08:20:56.031Z,125
2019-02-11T08:22:05.211Z,140
2019-02-11T08:23:22.753Z,165
2019-02-11T08:24:32.462Z,155
2019-02-11T08:25:42.399Z,150
2019-02-11T08:26:52.324Z,160
2019-02-11T08:28:01.505Z,140
2019-02-11T08:29:11.185Z,130
2019-02-11T08:30:20.859Z,140
2019-02-11T08:31:30.568Z,130
2019-02-11T08:32:40.238Z,135
2019-02-11T08:33:49.921Z,135
2019-02-11T08:34:59.598Z,135
2019-02-11T08:36:09.283Z,135
2019-02-11T08:37:19.217Z,140
2019-02-11T08:38:28.654Z,140
2019-02-11T08:39:38.347Z,140
2019-02-11T08:40:48.023Z,145
2019-02-11T08:41:57.953Z,145
2019-02-11T08:43:07.879Z,145
2019-02-11T08:44:17.824Z,145
2019-02-11T08:45:27.775Z,155
2019-02-11T08:46:37.467Z,160
2019-02-11T08:47:47.180Z,160
2019-02-11T08:48:57.070Z,150
2019-02-11T08:50:07.108Z,150
2019-02-11T08:51:16.561Z,150
2019-02-11T08:52:26.548Z,140
2019-02-11T08:53:36.233Z,140
2019-02-11T08:54:46.155Z,140
2019-02-11T08:55:55.837Z,145
2019-02-11T08:57:06.770Z,150
2019-02-11T08:58:16.217Z,155
2019-02-11T08:59:25.657Z,165
2019-02-11T09:00:35.610Z,170
2019-02-11T09:01:45.298Z,170
2019-02-11T09:02:54.981Z,155
2019-02-11T09:04:04.915Z,150
2019-02-11T09:05:14.601Z,155
2019-02-11T09:06:25.238Z,155
2019-02-11T09:07:34.666Z,160
2019-02-11T09:08:44.612Z,165
2019-02-11T09:09:54.549Z,185
2019-02-11T09:11:03.990Z,200
2019-02-11T09:12:13.723Z,220
2019-02-11T09:13:23.412Z,265
2019-02-11T09:14:33.474Z,215
2019-02-11T09:15:43.411Z,185
2019-02-11T09:16:53.087Z,155
2019-02-11T09:18:02.781Z,165
2019-02-11T09:19:12.454Z,210
2019-02-11T09:20:22.161Z,200
2019-02-11T09:21:32.086Z,160
2019-02-11T09:22:42.018Z,160
2019-02-11T09:23:51.699Z,175
2019-02-11T09:25:01.171Z,175
2019-02-11T09:26:10.600Z,200
2019-02-11T09:27:20.289Z,185
2019-02-11T09:28:30.224Z,160
2019-02-11T09:29:39.914Z,170
2019-02-11T09:30:49.871Z,185
2019-02-11T09:31:59.562Z,185
2019-02-11T09:33:09.483Z,195
2019-02-11T09:34:18.909Z,215
2019-02-11T09:35:28.834Z,210
2019-02-11T09:36:38.522Z,190
2019-02-11T09:37:48.458Z,200
2019-02-11T09:38:57.921Z,215
2019-02-11T09:40:07.610Z,250
2019-02-11T09:41:17.289Z,245
2019-02-11T09:42:26.996Z,265
2019-02-11T09:43:36.711Z,205
2019-02-11T09:44:46.647Z,240
2019-02-11T09:46:03.526Z,215
2019-02-11T09:47:13.683Z,255
2019-02-11T09:48:23.619Z,210
2019-02-11T09:49:33.068Z,195
2019-02-11T09:50:42.999Z,220
2019-02-11T09:51:52.676Z,225
2019-02-11T09:53:02.368Z,275
2019-02-11T09:54:12.046Z,245
2019-02-11T09:55:21.469Z,250
2019-02-11T09:56:30.914Z,245
2019-02-11T09:57:40.335Z,260
2019-02-11T09:58:50.282Z,255
2019-02-11T10:00:00.265Z,245
2019-02-11T10:01:10.009Z,305
2019-02-11T10:02:19.949Z,275
2019-02-11T10:03:29.125Z,255
2019-02-11T10:04:38.805Z,285
2019-02-11T10:05:48.736Z,270
2019-02-11T10:06:58.681Z,235
2019-02-11T10:08:08.390Z,235
2019-02-11T10:09:18.335Z,235
2019-02-11T10:10:28.016Z,220
2019-02-11T10:11:37.944Z,250
2019-02-11T10:12:47.640Z,250
2019-02-11T10:13:57.328Z,210
2019-02-11T10:15:07.442Z,205
2019-02-11T10:16:22.343Z,225
2019-02-11T10:17:39.081Z,195
2019-02-11T10:18:48.261Z,210
2019-02-11T10:19:58.189Z,215
2019-02-11T10:21:07.880Z,285
2019-02-11T10:22:17.058Z,255
2019-02-11T10:23:26.992Z,290
2019-02-11T10:24:36.734Z,300
2019-02-11T10:25:46.674Z,335
2019-02-11T10:26:56.756Z,335
2019-02-11T10:28:06.499Z,280
2019-02-11T10:29:15.935Z,255
2019-02-11T10:30:25.118Z,230
2019-02-11T10:31:34.311Z,210
2019-02-11T10:32:44.013Z,195
2019-02-11T10:33:53.440Z,185
2019-02-11T10:35:03.121Z,210
2019-02-11T10:36:12.546Z,225
2019-02-11T10:37:22.230Z,240
2019-02-11T10:38:38.875Z,200
2019-02-11T10:39:48.566Z,240
2019-02-11T10:40:58.010Z,320
2019-02-11T10:42:07.979Z,320
2019-02-11T10:43:17.668Z,320
2019-02-11T10:44:27.627Z,330
2019-02-11T10:45:45.879Z,265
2019-02-11T10:46:55.063Z,240
2019-02-11T10:48:04.751Z,270
2019-02-11T10:49:14.442Z,315
2019-02-11T10:50:24.128Z,310
2019-02-11T10:51:34.074Z,275
2019-02-11T10:52:43.260Z,300
2019-02-11T10:53:53.032Z,295
2019-02-11T10:55:02.956Z,330
2019-02-11T10:56:12.884Z,320
2019-02-11T10:57:22.569Z,265
2019-02-11T10:58:32.501Z,290
2019-02-11T10:59:42.181Z,300
2019-02-11T11:00:52.119Z,305
2019-02-11T11:02:01.542Z,270
2019-02-11T11:03:11.044Z,295
2019-02-11T11:04:20.474Z,270
2019-02-11T11:05:30.151Z,310
2019-02-11T11:06:40.078Z,355
2019-02-11T11:07:49.765Z,285
2019-02-11T11:08:59.460Z,215
2019-02-11T11:10:08.894Z,145
2019-02-11T11:11:18.832Z,150
2019-02-11T11:12:28.511Z,155
2019-02-11T11:13:38.186Z,145
2019-02-11T11:14:47.943Z,115
2019-02-11T11:15:57.886Z,155
2019-02-11T11:17:07.573Z,235
2019-02-11T11:18:17.003Z,320
2019-02-11T11:19:26.938Z,255
2019-02-11T11:20:36.637Z,245
2019-02-11T11:21:46.330Z,255
2019-02-11T11:22:56.262Z,285
2019-02-11T11:24:05.457Z,315
2019-02-11T11:25:15.137Z,300
2019-02-11T11:26:25.179Z,255
2019-02-11T11:27:34.612Z,235
2019-02-11T11:28:44.041Z,185
2019-02-11T11:29:52.988Z,190
2019-02-11T11:31:02.423Z,170
2019-02-11T11:32:12.362Z,235
2019-02-11T11:33:22.054Z,335
2019-02-11T11:34:31.740Z,360
2019-02-11T11:35:41.683Z,330
2019-02-11T11:36:51.403Z,350
2019-02-11T11:38:01.335Z,370
2019-02-11T11:39:11.013Z,330
2019-02-11T11:40:20.442Z,300
2019-02-11T11:41:29.880Z,300
2019-02-11T11:42:39.329Z,295
2019-02-11T11:43:49.277Z,290
2019-02-11T11:44:58.735Z,325
2019-02-11T11:46:08.436Z,275
2019-02-11T11:47:18.107Z,270
2019-02-11T11:48:27.539Z,315
2019-02-11T11:49:37.124Z,270
2019-02-11T11:50:47.054Z,250
2019-02-11T11:51:56.733Z,225
2019-02-11T11:53:06.666Z,220
2019-02-11T11:54:16.082Z,225
2019-02-11T11:55:26.350Z,230
2019-02-11T11:56:36.351Z,270
2019-02-11T11:57:46.382Z,335
2019-02-11T11:58:56.393Z,300
2019-02-11T12:00:06.594Z,310
2019-02-11T12:01:21.596Z,380
2019-02-11T12:02:31.605Z,310
2019-02-11T12:03:41.333Z,315
2019-02-11T12:04:51.363Z,355
2019-02-11T12:06:01.115Z,330
2019-02-11T12:07:11.154Z,275
2019-02-11T12:08:21.195Z,330
2019-02-11T12:09:31.181Z,320
2019-02-11T12:10:41.346Z,265
2019-02-11T12:11:51.312Z,230
2019-02-11T12:13:20.325Z,245
2019-02-11T12:14:31.597Z,280
2019-02-11T12:15:41.591Z,245
2019-02-11T12:17:09.820Z,230
2019-02-11T12:18:19.875Z,230
2019-02-11T12:19:29.878Z,185
2019-02-11T12:20:43.341Z,175
2019-02-11T12:21:53.369Z,185
2019-02-11T12:23:03.191Z,190
2019-02-11T12:24:13.188Z,200
2019-02-11T12:25:23.262Z,250
2019-02-11T12:26:33.405Z,275
2019-02-11T12:27:43.210Z,195
2019-02-11T12:28:53.222Z,230
2019-02-11T12:30:02.992Z,260
2019-02-11T12:31:12.769Z,300
2019-02-11T12:32:22.508Z,250
2019-02-11T12:33:32.274Z,225
2019-02-11T12:34:42.038Z,325
2019-02-11T12:35:52.026Z,355
2019-02-11T12:37:02.029Z,360
2019-02-11T12:38:12.078Z,300
2019-02-11T12:39:22.101Z,360
2019-02-11T12:40:31.830Z,275
2019-02-11T12:41:41.840Z,270
2019-02-11T12:42:55.606Z,245
2019-02-11T12:44:05.652Z,260
2019-02-11T12:45:15.668Z,295
2019-02-11T12:46:25.446Z,280
2019-02-11T12:47:35.422Z,315
2019-02-11T12:48:45.451Z,445
2019-02-11T12:49:55.208Z,575
2019-02-11T12:51:05.202Z,540
2019-02-11T12:52:15.184Z,480
2019-02-11T12:53:25.177Z,415
2019-02-11T12:54:35.224Z,380
2019-02-11T12:55:45.237Z,480
2019-02-11T12:56:54.951Z,385
2019-02-11T12:58:04.764Z,250
2019-02-11T12:59:14.773Z,185
2019-02-11T13:00:26.353Z,155
2019-02-11T13:01:36.363Z,135
2019-02-11T13:02:46.422Z,165
2019-02-11T13:03:56.142Z,160
2019-02-11T13:05:06.325Z,195
2019-02-11T13:06:16.084Z,210
2019-02-11T13:07:26.093Z,215
2019-02-11T13:08:37.668Z,265
2019-02-11T13:09:47.391Z,370
2019-02-11T13:10:57.410Z,425
2019-02-11T13:12:07.189Z,525
2019-02-11T13:13:17.096Z,445
2019-02-11T13:14:27.208Z,370
2019-02-11T13:16:10.224Z,425
2019-02-11T13:17:40.452Z,450
2019-02-11T13:18:50.941Z,780
2019-02-11T13:20:19.857Z,415
2019-02-11T13:21:29.993Z,415
2019-02-11T13:22:39.768Z,305
2019-02-11T13:23:49.792Z,285
2019-02-11T13:24:59.580Z,305
2019-02-11T13:26:09.292Z,380
2019-02-11T13:27:19.051Z,320
2019-02-11T13:28:28.799Z,375
2019-02-11T13:29:38.554Z,525
2019-02-11T13:30:48.272Z,410
2019-02-11T13:31:58.254Z,520
2019-02-11T13:33:08.045Z,410
2019-02-11T13:34:18.014Z,385
2019-02-11T13:35:28.032Z,420
2019-02-11T13:36:38.050Z,345
2019-02-11T13:37:48.254Z,280
2019-02-11T13:38:58.334Z,245
2019-02-11T13:40:08.063Z,215
2019-02-11T13:41:18.070Z,270
2019-02-11T13:42:28.073Z,305
2019-02-11T13:43:38.078Z,340
2019-02-11T13:44:47.835Z,360
2019-02-11T13:45:57.848Z,940
2019-02-11T13:47:07.827Z,305
2019-02-11T13:48:17.609Z,325
2019-02-11T13:49:27.645Z,455
2019-02-11T13:50:37.868Z,510
2019-02-11T13:51:47.870Z,455
2019-02-11T13:52:57.963Z,610
2019-02-11T13:54:07.747Z,410
2019-02-11T13:55:17.882Z,385
2019-02-11T13:56:27.967Z,545
2019-02-11T13:57:37.994Z,885
2019-02-11T13:58:51.911Z,930
2019-02-11T14:00:02.041Z,785
2019-02-11T14:01:12.115Z,470
2019-02-11T14:02:22.167Z,455
2019-02-11T14:03:32.213Z,530
2019-02-11T14:04:42.225Z,575
2019-02-11T14:05:51.703Z,735
2019-02-11T14:07:01.760Z,605
2019-02-11T14:08:11.790Z,610
2019-02-11T14:09:21.915Z,530
2019-02-11T14:10:31.979Z,430
2019-02-11T14:11:42.021Z,605
2019-02-11T14:12:52.038Z,705
2019-02-11T14:14:12.525Z,585
2019-02-11T14:15:27.646Z,1040
2019-02-11T14:16:37.734Z,700
2019-02-11T14:17:47.735Z,625
2019-02-11T14:18:57.827Z,760
2019-02-11T14:20:07.949Z,915
2019-02-11T14:21:17.973Z,725
2019-02-11T14:22:28.263Z,560
2019-02-11T14:23:38.277Z,635
2019-02-11T14:24:48.285Z,970
2019-02-11T14:25:58.333Z,1170
2019-02-11T14:27:08.143Z,1110
2019-02-11T14:28:17.911Z,1375
2019-02-11T14:29:27.916Z,1220
2019-02-11T14:30:37.683Z,1185
2019-02-11T14:31:47.698Z,1250
2019-02-11T14:32:57.447Z,565
2019-02-11T14:34:12.272Z,945
2019-02-11T14:35:22.252Z,1465
2019-02-11T14:36:32.359Z,975
2019-02-11T14:37:42.423Z,1345
2019-02-11T14:38:52.275Z,1190
2019-02-11T14:40:02.242Z,1090
2019-02-11T14:41:12.274Z,1055
2019-02-11T14:42:24.531Z,1020
2019-02-11T14:43:34.517Z,1025
2019-02-11T14:44:44.500Z,910
2019-02-11T14:45:54.501Z,880
2019-02-11T14:47:04.029Z,810
2019-02-11T14:48:32.201Z,810
2019-02-11T14:49:42.192Z,765
2019-02-11T14:50:51.901Z,775
2019-02-11T14:52:01.343Z,790
2019-02-11T14:53:11.051Z,795
2019-02-11T14:54:20.492Z,770
2019-02-11T14:55:30.436Z,680
2019-02-11T14:56:40.372Z,625
2019-02-11T14:57:50.062Z,640
2019-02-11T14:58:59.756Z,550
2019-02-11T15:00:10.998Z,545
2019-02-11T15:01:20.932Z,520
2019-02-11T15:02:30.425Z,580
2019-02-11T15:03:39.860Z,495
2019-02-11T15:04:49.545Z,505
2019-02-11T15:05:59.501Z,610
2019-02-11T15:07:09.190Z,600
2019-02-11T15:08:19.130Z,610
2019-02-11T15:09:29.133Z,590
2019-02-11T15:10:39.078Z,410
2019-02-11T15:11:48.530Z,380
2019-02-11T15:12:57.991Z,315
2019-02-11T15:14:07.700Z,245
2019-02-11T15:15:17.400Z,390
2019-02-11T15:16:27.375Z,420
2019-02-11T15:17:37.329Z,425
2019-02-11T15:18:47.018Z,285
2019-02-11T15:19:56.969Z,245
2019-02-11T15:21:06.922Z,265
2019-02-11T15:22:16.115Z,265
2019-02-11T15:23:26.060Z,230
2019-02-11T15:24:35.998Z,210
2019-02-11T15:25:45.445Z,255
2019-02-11T15:26:55.679Z,225
2019-02-11T15:28:05.642Z,195
2019-02-11T15:29:15.578Z,160
2019-02-11T15:30:25.272Z,145
2019-02-11T15:31:35.212Z,170
2019-02-11T15:32:44.887Z,175
2019-02-11T15:33:54.821Z,190
2019-02-11T15:35:04.778Z,200
2019-02-11T15:36:14.218Z,140
2019-02-11T15:37:23.650Z,140
2019-02-11T15:38:33.595Z,120
2019-02-11T15:39:43.271Z,115
2019-02-11T15:40:53.203Z,120
2019-02-11T15:42:02.879Z,120
2019-02-11T15:43:12.562Z,105
2019-02-11T15:44:22.000Z,100
2019-02-11T15:45:31.434Z,100
2019-02-11T15:46:40.863Z,95
2019-02-11T15:47:50.544Z,95
2019-02-11T15:49:00.481Z,95
2019-02-11T15:50:09.909Z,95
2019-02-11T15:51:19.335Z,110
2019-02-11T15:52:29.009Z,115
2019-02-11T15:53:38.213Z,105
2019-02-11T15:54:47.645Z,105
2019-02-11T15:55:56.830Z,110
2019-02-11T15:57:06.523Z,110
2019-02-11T15:58:16.225Z,100
2019-02-11T15:59:25.680Z,95
2019-02-11T16:00:35.364Z,90
2019-02-11T16:01:45.053Z,80
2019-02-11T16:02:56.393Z,80
2019-02-11T16:04:07.158Z,80
2019-02-11T16:05:23.067Z,80
2019-02-11T16:06:40.545Z,65
2019-02-11T16:07:50.501Z,55
2019-02-11T16:09:09.014Z,45
2019-02-11T16:10:18.700Z,40
2019-02-11T16:11:28.636Z,35
2019-02-11T16:12:38.322Z,30
2019-02-11T16:13:48.249Z,25
2019-02-11T16:14:57.689Z,15
2019-02-11T16:16:07.370Z,15
2019-02-11T16:17:17.095Z,10
2019-02-11T16:18:27.071Z,10
2019-02-11T16:19:36.514Z,10
2019-02-11T16:20:46.215Z,10
2019-02-11T16:21:56.160Z,10
2019-02-11T16:23:06.097Z,5
2019-02-11T16:24:15.805Z,10
2019-02-11T16:25:25.755Z,5
2019-02-11T16:26:35.836Z,5
2019-02-11T16:27:45.524Z,5
2019-02-11T16:28:55.213Z,5
2019-02-11T16:30:05.171Z,5
2019-02-11T16:31:15.111Z,0
2019-02-11T16:32:24.543Z,0
2019-02-11T16:33:33.971Z,0
2019-02-11T16:34:43.901Z,0
2019-02-11T16:35:53.828Z,0
2019-02-11T16:37:03.515Z,0
2019-02-11T16:38:13.393Z,0